createdAt,value
2022-10-19T00:01:12.102Z,97.91
2022-10-19T00:03:39.750Z,98.46
2022-10-19T00:06:26.192Z,100.00
2022-10-19T00:09:18.181Z,100.00
2022-10-19T00:11:50.043Z,100.00
2022-10-19T00:14:22.872Z,100.00
2022-10-19T00:16:51.212Z,100.00
2022-10-19T00:19:21.988Z,100.00
2022-10-19T00:24:16.054Z,100.00
2022-10-19T00:26:43.579Z,100.00
2022-10-19T00:29:12.466Z,100.00
2022-10-19T00:31:39.342Z,100.00
2022-10-19T00:34:06.147Z,100.00
2022-10-19T00:36:35.076Z,100.00
2022-10-19T00:39:03.936Z,100.00
2022-10-19T00:41:32.871Z,100.00
2022-10-19T00:44:02.595Z,100.00
2022-10-19T00:46:31.997Z,100.00
2022-10-19T00:49:04.011Z,100.00
2022-10-19T00:51:33.487Z,100.00
2022-10-19T00:54:02.651Z,100.00
2022-10-19T00:56:29.487Z,100.00
2022-10-19T00:58:56.446Z,100.00
2022-10-19T01:01:27.329Z,100.00
2022-10-19T01:03:54.080Z,100.00
2022-10-19T01:06:21.220Z,100.00
2022-10-19T01:08:47.862Z,100.00
2022-10-19T01:11:14.583Z,100.00
2022-10-19T01:14:05.578Z,100.00
2022-10-19T01:17:17.306Z,100.00
2022-10-19T01:20:05.997Z,100.00
2022-10-19T01:23:03.670Z,100.00
2022-10-19T01:25:39.375Z,100.00
2022-10-19T01:28:17.233Z,100.00
2022-10-19T01:30:58.892Z,100.00
2022-10-19T01:33:41.453Z,100.00
2022-10-19T01:36:29.926Z,100.00
2022-10-19T01:39:13.006Z,100.00
2022-10-19T01:41:58.194Z,100.00
2022-10-19T01:44:48.384Z,100.00
2022-10-19T01:47:31.170Z,100.00
2022-10-19T01:50:16.595Z,100.00
2022-10-19T01:52:44.056Z,100.00
2022-10-19T01:55:14.814Z,100.00
2022-10-19T01:57:47.041Z,100.00
2022-10-19T02:00:16.566Z,100.00
2022-10-19T02:02:47.882Z,100.00
2022-10-19T02:05:17.791Z,100.00
2022-10-19T02:07:49.512Z,100.00
2022-10-19T02:10:16.329Z,100.00
2022-10-19T02:12:43.928Z,100.00
2022-10-19T02:15:14.681Z,100.00
2022-10-19T02:17:49.205Z,100.00
2022-10-19T02:20:17.091Z,100.00
2022-10-19T02:22:44.391Z,100.00
2022-10-19T02:25:12.188Z,100.00
2022-10-19T02:27:43.594Z,100.00
2022-10-19T02:30:13.034Z,100.00
2022-10-19T02:32:39.963Z,100.00
2022-10-19T02:35:07.266Z,100.00
2022-10-19T02:37:34.226Z,100.00
2022-10-19T02:40:01.264Z,100.00
2022-10-19T02:42:50.987Z,100.00
2022-10-19T02:45:23.742Z,100.00
2022-10-19T02:47:55.133Z,100.00
2022-10-19T02:50:22.593Z,100.00
2022-10-19T02:52:49.270Z,100.00
2022-10-19T02:55:16.108Z,100.00
2022-10-19T02:57:42.857Z,100.00
2022-10-19T03:00:10.797Z,100.00
2022-10-19T03:02:37.638Z,100.00
2022-10-19T03:05:04.814Z,100.00
2022-10-19T03:07:31.736Z,100.00
2022-10-19T03:09:58.541Z,100.00
2022-10-19T03:12:25.213Z,100.00
2022-10-19T03:14:51.864Z,100.00
2022-10-19T03:17:18.630Z,100.00
2022-10-19T03:19:45.454Z,100.00
2022-10-19T03:22:13.864Z,100.00
2022-10-19T03:24:40.620Z,100.00
2022-10-19T03:27:07.347Z,100.00
2022-10-19T03:29:33.994Z,100.00
2022-10-19T03:32:00.748Z,100.00
2022-10-19T03:34:27.535Z,100.00
2022-10-19T03:36:54.317Z,100.00
2022-10-19T03:39:20.992Z,100.00
2022-10-19T03:41:47.680Z,100.00
2022-10-19T03:44:14.357Z,100.00
2022-10-19T03:46:41.252Z,100.00
2022-10-19T03:49:09.337Z,100.00
2022-10-19T03:51:36.232Z,100.00
2022-10-19T03:54:06.100Z,100.00
2022-10-19T03:56:34.080Z,100.00
2022-10-19T03:59:02.516Z,100.00
2022-10-19T04:01:41.391Z,100.00
2022-10-19T04:04:12.162Z,100.00
2022-10-19T04:06:41.218Z,100.00
2022-10-19T04:09:09.358Z,100.00
2022-10-19T04:11:36.605Z,100.00
2022-10-19T04:14:03.842Z,100.00
2022-10-19T04:16:32.226Z,100.00
2022-10-19T04:18:59.510Z,100.00
2022-10-19T04:21:33.483Z,100.00
2022-10-19T04:24:04.996Z,100.00
2022-10-19T04:26:32.480Z,100.00
2022-10-19T04:29:00.428Z,100.00
2022-10-19T04:31:28.671Z,100.00
2022-10-19T04:33:56.364Z,100.00
2022-10-19T04:36:23.995Z,100.00
2022-10-19T04:38:51.021Z,100.00
2022-10-19T04:41:20.103Z,100.00
2022-10-19T04:43:47.904Z,100.00
2022-10-19T04:46:19.845Z,100.00
2022-10-19T04:48:48.284Z,100.00
2022-10-19T04:51:15.859Z,100.00
2022-10-19T04:53:44.099Z,100.00
2022-10-19T04:56:22.495Z,100.00
2022-10-19T04:58:49.586Z,100.00
2022-10-19T05:01:20.869Z,100.00
2022-10-19T05:03:48.626Z,100.00
2022-10-19T05:06:16.168Z,100.00
2022-10-19T05:08:42.865Z,100.00
2022-10-19T05:11:14.406Z,100.00
2022-10-19T05:13:42.701Z,100.00
2022-10-19T05:16:12.750Z,100.00
2022-10-19T05:18:40.000Z,100.00
2022-10-19T05:21:10.087Z,100.00
2022-10-19T05:23:37.184Z,100.00
2022-10-19T05:26:06.616Z,100.00
2022-10-19T05:28:33.964Z,100.00
2022-10-19T05:31:09.920Z,100.00
2022-10-19T05:33:37.672Z,100.00
2022-10-19T05:36:20.974Z,99.81
2022-10-19T05:38:50.034Z,100.00
2022-10-19T05:41:17.329Z,99.75
2022-10-19T05:43:45.116Z,99.64
2022-10-19T05:46:14.421Z,98.83
2022-10-19T05:48:41.669Z,97.76
2022-10-19T05:51:11.998Z,98.63
2022-10-19T05:56:17.306Z,97.91
2022-10-19T05:58:44.766Z,96.00
2022-10-19T06:01:12.665Z,96.17
2022-10-19T06:03:39.349Z,95.49
2022-10-19T06:06:07.946Z,95.81
2022-10-19T06:08:35.176Z,96.77
2022-10-19T06:11:33.934Z,95.21
2022-10-19T06:14:02.573Z,94.83
2022-10-19T06:16:30.918Z,94.60
2022-10-19T06:18:58.188Z,93.92
2022-10-19T06:21:27.321Z,91.18
2022-10-19T06:23:56.823Z,88.81
2022-10-19T06:26:24.547Z,89.08
2022-10-19T06:28:52.109Z,88.20
2022-10-19T06:31:18.770Z,87.69
2022-10-19T06:33:49.211Z,86.92
2022-10-19T06:36:19.497Z,87.16
2022-10-19T06:38:46.967Z,87.14
2022-10-19T06:41:14.189Z,87.38
2022-10-19T06:43:43.050Z,87.18
2022-10-19T06:46:17.530Z,86.84
2022-10-19T06:48:44.266Z,86.62
2022-10-19T06:51:12.035Z,86.80
2022-10-19T06:53:38.829Z,87.52
2022-10-19T06:56:06.774Z,88.10
2022-10-19T06:58:38.261Z,86.87
2022-10-19T07:01:07.760Z,87.66
2022-10-19T07:03:35.648Z,88.05
2022-10-19T07:06:05.490Z,88.90
2022-10-19T07:08:32.627Z,86.81
2022-10-19T07:11:02.641Z,85.53
2022-10-19T07:13:30.431Z,85.78
2022-10-19T07:16:07.018Z,84.37
2022-10-19T07:18:35.346Z,84.72
2022-10-19T07:21:04.704Z,84.88
2022-10-19T07:23:33.133Z,84.32
2022-10-19T07:26:05.411Z,83.95
2022-10-19T07:28:32.407Z,84.28
2022-10-19T07:30:59.127Z,83.28
2022-10-19T07:33:26.109Z,83.39
2022-10-19T07:35:59.406Z,82.12
2022-10-19T07:38:26.092Z,82.90
2022-10-19T07:41:14.170Z,82.16
2022-10-19T07:43:43.125Z,83.08
2022-10-19T07:46:13.467Z,82.68
2022-10-19T07:48:40.156Z,82.09
2022-10-19T07:51:08.894Z,82.25
2022-10-19T07:53:36.579Z,81.77
2022-10-19T07:56:09.174Z,82.58
2022-10-19T07:58:36.634Z,82.27
2022-10-19T08:01:06.381Z,82.36
2022-10-19T08:06:22.015Z,81.47
2022-10-19T08:08:49.488Z,82.26
2022-10-19T08:11:23.638Z,81.39
2022-10-19T08:13:50.726Z,82.29
2022-10-19T08:16:28.604Z,82.03
2022-10-19T08:19:01.230Z,81.16
2022-10-19T08:21:29.189Z,80.60
2022-10-19T08:23:56.109Z,80.14
2022-10-19T08:26:23.202Z,80.37
2022-10-19T08:28:49.920Z,80.69
2022-10-19T08:31:22.242Z,80.67
2022-10-19T08:33:50.620Z,80.75
2022-10-19T08:36:19.670Z,80.66
2022-10-19T08:38:48.593Z,81.49
2022-10-19T08:41:34.257Z,79.78
2022-10-19T08:44:19.137Z,80.82
2022-10-19T08:47:14.059Z,79.57
2022-10-19T08:49:41.864Z,79.62
2022-10-19T08:52:20.206Z,79.81
2022-10-19T08:54:58.878Z,79.19
2022-10-19T08:57:34.846Z,79.00
2022-10-19T09:00:20.986Z,77.04
2022-10-19T09:03:31.918Z,77.21
2022-10-19T09:06:19.928Z,77.16
2022-10-19T09:08:49.939Z,75.78
2022-10-19T09:11:22.703Z,74.83
2022-10-19T09:14:04.663Z,75.28
2022-10-19T09:16:33.038Z,76.24
2022-10-19T09:18:59.710Z,77.00
2022-10-19T09:21:46.312Z,74.73
2022-10-19T09:24:20.091Z,73.83
2022-10-19T09:26:53.703Z,74.42
2022-10-19T09:29:30.009Z,74.10
2022-10-19T09:32:00.624Z,73.36
2022-10-19T09:34:33.473Z,72.22
2022-10-19T09:37:00.957Z,72.43
2022-10-19T09:39:29.943Z,72.71
2022-10-19T09:42:08.365Z,73.25
2022-10-19T09:44:35.038Z,72.45
2022-10-19T09:47:20.636Z,72.36
2022-10-19T09:49:48.941Z,72.21
2022-10-19T09:52:39.467Z,72.40
2022-10-19T09:55:15.785Z,71.44
2022-10-19T09:57:46.878Z,71.75
2022-10-19T10:00:22.296Z,71.95
2022-10-19T10:02:54.402Z,70.63
2022-10-19T10:05:36.683Z,70.72
2022-10-19T10:08:05.077Z,70.71
2022-10-19T10:10:38.447Z,69.79
2022-10-19T10:13:06.114Z,69.90
2022-10-19T10:15:44.200Z,69.86
2022-10-19T10:18:16.765Z,69.21
2022-10-19T10:21:04.909Z,68.40
2022-10-19T10:23:36.429Z,69.10
2022-10-19T10:26:04.377Z,68.16
2022-10-19T10:28:31.524Z,66.24
2022-10-19T10:31:04.928Z,65.01
2022-10-19T10:33:49.207Z,65.40
2022-10-19T10:36:15.913Z,65.50
2022-10-19T10:38:47.364Z,62.46
2022-10-19T10:41:20.206Z,63.18
2022-10-19T10:44:04.617Z,62.48
2022-10-19T10:46:39.422Z,60.41
2022-10-19T10:49:16.725Z,60.70
2022-10-19T10:51:50.658Z,59.67
2022-10-19T10:54:31.395Z,60.29
2022-10-19T10:57:20.029Z,57.97
2022-10-19T10:59:49.814Z,59.43
2022-10-19T11:02:31.891Z,58.26
2022-10-19T11:05:17.634Z,56.67
2022-10-19T11:07:48.383Z,57.01
2022-10-19T11:10:44.296Z,56.88
2022-10-19T11:13:13.985Z,56.60
2022-10-19T11:15:59.001Z,57.58
2022-10-19T11:18:32.440Z,55.00
2022-10-19T11:21:07.381Z,54.18
2022-10-19T11:23:49.257Z,56.05
2022-10-19T11:26:53.724Z,56.28
2022-10-19T11:29:55.725Z,57.63
2022-10-19T11:32:48.114Z,54.80
2022-10-19T11:35:50.373Z,55.91
2022-10-19T11:38:35.936Z,57.74
2022-10-19T11:41:38.925Z,58.58
2022-10-19T11:44:26.369Z,58.36
2022-10-19T11:47:08.167Z,58.92
2022-10-19T11:50:16.329Z,58.94
2022-10-19T11:53:08.048Z,59.72
2022-10-19T11:56:13.594Z,59.82
2022-10-19T11:59:05.646Z,58.11
2022-10-19T12:02:05.195Z,56.82
2022-10-19T12:04:37.756Z,58.25
2022-10-19T12:07:16.585Z,59.46
2022-10-19T12:09:55.146Z,57.98
2022-10-19T12:12:38.879Z,56.23
2022-10-19T12:15:18.859Z,58.35
2022-10-19T12:17:50.165Z,60.67
2022-10-19T12:20:24.929Z,60.27
2022-10-19T12:22:51.962Z,58.93
2022-10-19T12:25:20.036Z,59.66
2022-10-19T12:27:49.186Z,59.41
2022-10-19T12:30:22.469Z,57.64
2022-10-19T12:33:06.582Z,58.88
2022-10-19T12:35:53.518Z,59.56
2022-10-19T12:38:50.914Z,60.20
2022-10-19T12:41:24.938Z,61.75
2022-10-19T12:44:13.130Z,59.83
2022-10-19T12:47:00.846Z,60.96
2022-10-19T12:49:34.486Z,59.39
2022-10-19T12:52:02.421Z,61.18
2022-10-19T12:54:32.631Z,60.27
2022-10-19T12:57:01.806Z,60.87
2022-10-19T12:59:37.213Z,59.82
2022-10-19T13:02:24.380Z,61.03
2022-10-19T13:04:54.403Z,59.10
2022-10-19T13:07:21.191Z,56.67
2022-10-19T13:09:48.890Z,58.62
2022-10-19T13:12:25.619Z,58.95
2022-10-19T13:15:00.997Z,60.23
2022-10-19T13:17:36.656Z,61.37
2022-10-19T13:20:15.746Z,59.77
2022-10-19T13:22:45.055Z,62.11
2022-10-19T13:25:24.256Z,63.49
2022-10-19T13:27:52.859Z,62.20
2022-10-19T13:30:44.118Z,62.08
2022-10-19T13:33:26.028Z,63.25
2022-10-19T13:35:58.847Z,62.15
2022-10-19T13:38:32.966Z,62.28
2022-10-19T13:41:06.965Z,60.50
2022-10-19T13:43:55.416Z,62.20
2022-10-19T13:46:31.928Z,63.72
2022-10-19T13:49:02.286Z,62.17
2022-10-19T13:51:47.465Z,63.19
2022-10-19T13:54:19.923Z,63.94
2022-10-19T13:56:49.584Z,65.75
2022-10-19T13:59:59.638Z,65.26
2022-10-19T14:03:06.613Z,62.78
2022-10-19T14:05:54.832Z,64.50
2022-10-19T14:08:43.288Z,62.83
2022-10-19T14:11:32.114Z,64.65
2022-10-19T14:14:11.121Z,65.79
2022-10-19T14:17:01.193Z,67.15
2022-10-19T14:19:34.180Z,67.73
2022-10-19T14:22:17.371Z,68.55
2022-10-19T14:24:44.225Z,69.81
2022-10-19T14:27:18.520Z,70.56
2022-10-19T14:29:48.122Z,70.58
2022-10-19T14:32:15.666Z,72.05
2022-10-19T14:34:44.723Z,70.69
2022-10-19T14:37:23.526Z,69.82
2022-10-19T14:40:08.569Z,70.45
2022-10-19T14:42:43.854Z,71.19
2022-10-19T14:45:23.341Z,70.45
2022-10-19T14:48:03.842Z,70.20
2022-10-19T14:50:39.564Z,69.95
2022-10-19T14:53:37.348Z,68.99
2022-10-19T14:56:15.386Z,69.55
2022-10-19T14:58:51.325Z,70.03
2022-10-19T15:01:20.225Z,70.89
2022-10-19T15:03:49.010Z,71.22
2022-10-19T15:06:42.546Z,70.76
2022-10-19T15:09:37.372Z,71.02
2022-10-19T15:12:19.790Z,69.08
2022-10-19T15:14:47.961Z,67.89
2022-10-19T15:17:22.975Z,68.64
2022-10-19T15:19:49.885Z,70.08
2022-10-19T15:22:20.262Z,71.34
2022-10-19T15:25:07.729Z,71.77
2022-10-19T15:27:34.371Z,67.86
2022-10-19T15:30:22.930Z,68.92
2022-10-19T15:33:01.792Z,69.26
2022-10-19T15:35:35.146Z,69.65
2022-10-19T15:38:10.163Z,70.92
2022-10-19T15:40:40.770Z,71.60
2022-10-19T15:43:34.956Z,72.70
2022-10-19T15:46:05.409Z,73.59
2022-10-19T15:48:49.942Z,73.71
2022-10-19T15:51:25.499Z,74.30
2022-10-19T15:53:59.928Z,75.00
2022-10-19T15:56:29.246Z,75.74
2022-10-19T15:58:58.314Z,76.43
2022-10-19T16:01:27.366Z,76.39
2022-10-19T16:03:54.916Z,76.51
2022-10-19T16:06:24.809Z,76.57
2022-10-19T16:08:51.402Z,76.68
2022-10-19T16:11:21.264Z,76.91
2022-10-19T16:13:47.972Z,78.00
2022-10-19T16:16:33.444Z,78.02
2022-10-19T16:19:00.856Z,78.52
2022-10-19T16:21:30.754Z,78.99
2022-10-19T16:23:58.158Z,79.29
2022-10-19T16:26:26.278Z,79.79
2022-10-19T16:28:54.265Z,80.82
2022-10-19T16:31:21.653Z,81.76
2022-10-19T16:33:48.333Z,81.06
2022-10-19T16:36:15.438Z,80.66
2022-10-19T16:38:42.100Z,81.17
2022-10-19T16:41:10.860Z,80.83
2022-10-19T16:43:37.985Z,81.03
2022-10-19T16:46:05.641Z,80.94
2022-10-19T16:48:32.849Z,80.41
2022-10-19T16:51:05.683Z,80.25
2022-10-19T16:53:33.562Z,79.94
2022-10-19T16:56:08.938Z,79.71
2022-10-19T16:58:37.314Z,80.06
2022-10-19T17:01:08.364Z,79.93
2022-10-19T17:03:35.760Z,80.11
2022-10-19T17:06:03.804Z,80.15
2022-10-19T17:08:37.197Z,80.00
2022-10-19T17:11:23.684Z,80.70
2022-10-19T17:13:52.749Z,81.01
2022-10-19T17:16:21.304Z,81.40
2022-10-19T17:18:48.620Z,81.84
2022-10-19T17:21:19.039Z,81.66
2022-10-19T17:23:46.360Z,82.28
2022-10-19T17:26:13.726Z,82.21
2022-10-19T17:28:40.801Z,82.06
2022-10-19T17:31:12.860Z,83.78
2022-10-19T17:33:40.942Z,84.01
2022-10-19T17:36:11.984Z,84.44
2022-10-19T17:38:39.570Z,84.25
2022-10-19T17:41:16.485Z,87.61
2022-10-19T17:43:45.522Z,86.88
2022-10-19T17:46:14.550Z,86.43
2022-10-19T17:48:43.074Z,86.60
2022-10-19T17:51:16.835Z,86.47
2022-10-19T17:53:45.492Z,86.48
2022-10-19T17:56:18.055Z,88.03
2022-10-19T17:58:45.363Z,88.41
2022-10-19T18:01:13.026Z,88.21
2022-10-19T18:03:40.303Z,81.79
2022-10-19T18:06:10.870Z,80.97
2022-10-19T18:08:40.809Z,80.59
2022-10-19T18:11:13.154Z,79.50
2022-10-19T18:13:40.528Z,76.41
2022-10-19T18:16:13.306Z,75.52
2022-10-19T18:18:42.279Z,73.79
2022-10-19T18:21:11.532Z,73.74
2022-10-19T18:23:38.991Z,73.28
2022-10-19T18:26:13.490Z,72.58
2022-10-19T18:28:40.634Z,71.69
2022-10-19T18:31:16.107Z,71.87
2022-10-19T18:33:43.122Z,72.34
2022-10-19T18:36:10.803Z,71.65
2022-10-19T18:38:38.452Z,72.83
2022-10-19T18:41:25.912Z,71.89
2022-10-19T18:43:55.423Z,71.33
2022-10-19T18:46:23.409Z,69.92
2022-10-19T18:48:50.209Z,71.22
2022-10-19T18:51:18.499Z,71.42
2022-10-19T18:53:46.370Z,70.17
2022-10-19T18:56:15.582Z,71.69
2022-10-19T18:58:43.246Z,69.59
2022-10-19T19:01:24.221Z,68.28
2022-10-19T19:03:53.300Z,69.38
2022-10-19T19:06:30.401Z,68.10
2022-10-19T19:08:58.834Z,68.56
2022-10-19T19:11:29.582Z,69.34
2022-10-19T19:14:06.251Z,69.29
2022-10-19T19:16:36.500Z,67.09
2022-10-19T19:19:04.635Z,67.80
2022-10-19T19:21:32.006Z,68.54
2022-10-19T19:24:00.769Z,66.82
2022-10-19T19:26:30.589Z,67.47
2022-10-19T19:29:00.051Z,68.39
2022-10-19T19:31:26.756Z,67.35
2022-10-19T19:33:53.408Z,66.19
2022-10-19T19:36:21.008Z,68.26
2022-10-19T19:38:50.549Z,66.69
2022-10-19T19:41:17.742Z,65.82
2022-10-19T19:43:44.901Z,65.04
2022-10-19T19:46:17.402Z,64.98
2022-10-19T19:48:46.326Z,65.16
2022-10-19T19:51:16.787Z,64.77
2022-10-19T19:53:44.075Z,64.41
2022-10-19T19:56:12.312Z,65.56
2022-10-19T19:58:39.446Z,65.00
2022-10-19T20:01:19.219Z,64.84
2022-10-19T20:03:46.373Z,65.34
2022-10-19T20:06:18.679Z,65.11
2022-10-19T20:08:47.640Z,64.88
2022-10-19T20:11:16.227Z,64.95
2022-10-19T20:13:44.543Z,63.73
2022-10-19T20:16:13.736Z,62.51
2022-10-19T20:18:41.451Z,60.48
2022-10-19T20:21:08.184Z,61.67
2022-10-19T20:23:35.073Z,60.82
2022-10-19T20:26:02.109Z,60.10
2022-10-19T20:28:32.110Z,61.30
2022-10-19T20:31:06.571Z,60.25
2022-10-19T20:33:35.195Z,60.49
2022-10-19T20:36:13.310Z,60.26
2022-10-19T20:38:40.740Z,61.12
2022-10-19T20:41:09.481Z,60.94
2022-10-19T20:43:37.624Z,63.05
2022-10-19T20:46:05.948Z,61.62
2022-10-19T20:48:33.081Z,61.87
2022-10-19T20:51:21.347Z,61.84
2022-10-19T20:53:50.263Z,60.83
2022-10-19T20:56:23.213Z,61.28
2022-10-19T20:59:05.063Z,60.61
2022-10-19T21:01:33.910Z,60.78
2022-10-19T21:04:03.350Z,60.97
2022-10-19T21:06:31.823Z,62.21
2022-10-19T21:08:59.817Z,61.31
2022-10-19T21:11:35.468Z,61.72
2022-10-19T21:14:05.984Z,62.93
2022-10-19T21:16:34.101Z,61.73
2022-10-19T21:19:02.780Z,61.53
2022-10-19T21:21:32.177Z,61.45
2022-10-19T21:24:01.278Z,61.62
2022-10-19T21:26:28.648Z,61.34
2022-10-19T21:28:55.821Z,60.64
2022-10-19T21:31:25.002Z,60.63
2022-10-19T21:33:52.211Z,61.54
2022-10-19T21:36:21.086Z,59.51
2022-10-19T21:38:48.136Z,60.96
2022-10-19T21:41:20.959Z,59.42
2022-10-19T21:43:50.674Z,58.16
2022-10-19T21:46:19.659Z,58.15
2022-10-19T21:48:46.842Z,59.65
2022-10-19T21:51:33.783Z,56.78
2022-10-19T21:54:01.640Z,58.72
2022-10-19T21:56:28.630Z,58.18
2022-10-19T21:58:56.017Z,58.44
2022-10-19T22:01:26.090Z,56.78
2022-10-19T22:04:04.605Z,57.65
2022-10-19T22:06:33.395Z,59.20
2022-10-19T22:09:01.509Z,58.41
2022-10-19T22:11:28.816Z,59.07
2022-10-19T22:13:57.263Z,60.77
2022-10-19T22:16:25.104Z,60.98
2022-10-19T22:18:52.686Z,60.05
2022-10-19T22:21:23.073Z,60.45
2022-10-19T22:24:00.588Z,62.85
2022-10-19T22:26:30.359Z,61.89
2022-10-19T22:28:58.558Z,63.45
2022-10-19T22:31:27.202Z,64.42
2022-10-19T22:33:53.947Z,64.31
2022-10-19T22:36:20.750Z,63.05
2022-10-19T22:38:47.835Z,64.57
2022-10-19T22:42:10.560Z,65.35
2022-10-19T22:44:49.300Z,64.21
2022-10-19T22:47:16.040Z,64.20
2022-10-19T22:49:42.919Z,64.90
2022-10-19T22:52:09.686Z,64.81
2022-10-19T22:54:36.372Z,64.27
2022-10-19T22:57:03.612Z,64.09
2022-10-19T22:59:33.761Z,64.57
2022-10-19T23:02:06.403Z,64.77
2022-10-19T23:04:36.766Z,63.91
2022-10-19T23:07:05.079Z,64.83
2022-10-19T23:09:34.275Z,65.44
2022-10-19T23:12:05.347Z,64.05
2022-10-19T23:14:35.643Z,62.46
2022-10-19T23:17:04.670Z,62.12
2022-10-19T23:19:35.906Z,61.79
2022-10-19T23:22:09.177Z,62.70
2022-10-19T23:24:39.272Z,63.42
2022-10-19T23:27:09.196Z,63.11
2022-10-19T23:29:40.664Z,63.58
2022-10-19T23:32:12.388Z,63.93
2022-10-19T23:34:47.577Z,65.15
2022-10-19T23:37:17.049Z,65.15
2022-10-19T23:39:58.253Z,65.94
2022-10-19T23:42:25.443Z,65.35
2022-10-19T23:44:54.682Z,65.49
2022-10-19T23:47:22.558Z,64.88
2022-10-19T23:49:49.177Z,65.55
2022-10-19T23:52:16.975Z,65.59
2022-10-19T23:54:45.470Z,66.25
2022-10-19T23:57:16.955Z,65.19
2022-10-19T23:59:46.469Z,66.09
